Time;durP1;ratioP1;P1;durP2;ratioP2;P2;SDS_P1;SDS_P2;PMS_P1;PMS_P2;Temp;Humidity;BMP_temperature;BMP_pressure;BME280_temperature;BME280_humidity;BME280_pressure;Samples;Min_cycle;Max_cycle;Signal;HPM_P1;HPM_P2
2022/09/08 00:00:18;;;;;;;5.00;2.80;;;;;;;17.53;100.00;100101.34;688110;28;1274;-67
2022/09/08 00:00:39;;;;;;;4.40;2.70;;;;;;;17.53;100.00;100094.28;691836;28;4572;-67
2022/09/08 00:01:00;;;;;;;3.70;2.50;;;;;;;17.53;100.00;100096.06;692413;28;1492;-67
2022/09/08 00:01:20;;;;;;;4.73;2.47;;;;;;;17.57;100.00;100099.44;691464;28;1492;-67
2022/09/08 00:01:41;;;;;;;4.60;2.40;;;;;;;17.56;100.00;100101.22;692883;28;1391;-67
2022/09/08 00:02:01;;;;;;;4.70;2.53;;;;;;;17.55;100.00;100091.56;691632;28;1088;-67
2022/09/08 00:02:24;;;;;;;4.63;2.70;;;;;;;17.54;100.00;100097.78;690210;28;1206;-67
2022/09/08 00:02:45;;;;;;;6.45;2.72;;;;;;;17.52;100.00;100097.00;692275;28;1245;-68
2022/09/08 00:03:11;;;;;;;6.07;2.67;;;;;;;17.49;100.00;100097.97;693876;28;1428;-68
2022/09/08 00:03:31;;;;;;;5.65;2.75;;;;;;;17.52;100.00;100094.34;694061;28;1254;-67
2022/09/08 00:03:51;;;;;;;4.47;2.50;;;;;;;17.53;100.00;100091.63;696540;28;4466;-68
2022/09/08 00:04:12;;;;;;;4.30;2.50;;;;;;;17.55;100.00;100093.38;697400;28;1213;-68
2022/09/08 00:04:33;;;;;;;4.73;2.60;;;;;;;17.67;100.00;100096.31;696449;28;1210;-68
2022/09/08 00:04:53;;;;;;;4.57;2.70;;;;;;;17.69;100.00;100086.56;697156;28;1436;-68
2022/09/08 00:05:17;;;;;;;3.55;2.42;;;;;;;17.66;100.00;100091.97;697620;28;1205;-68
2022/09/08 00:05:49;;;;;;;3.90;2.60;;;;;;;17.57;100.00;100096.78;699552;28;1214;-68
2022/09/08 00:06:12;;;;;;;4.82;2.50;;;;;;;17.60;100.00;100102.81;698350;28;1249;-69
2022/09/08 00:06:33;;;;;;;4.47;2.60;;;;;;;17.60;100.00;100084.31;698748;28;980;-68
2022/09/08 00:06:53;;;;;;;4.60;2.60;;;;;;;17.59;100.00;100089.66;697302;28;4501;-68
2022/09/08 00:07:14;;;;;;;4.63;2.50;;;;;;;17.60;100.00;100094.00;697846;28;1424;-67
2022/09/08 00:07:35;;;;;;;4.65;2.80;;;;;;;17.56;100.00;100095.94;697442;28;1271;-68
2022/09/08 00:07:58;;;;;;;4.57;2.58;;;;;;;17.57;100.00;100094.13;697368;28;1249;-68
2022/09/08 00:08:20;;;;;;;4.85;2.47;;;;;;;17.53;100.00;100090.78;696539;28;1417;-67
2022/09/08 00:08:44;;;;;;;4.78;2.55;;;;;;;17.50;100.00;100094.41;696487;28;1210;-68
2022/09/08 00:09:05;;;;;;;5.00;2.63;;;;;;;17.48;100.00;100093.59;693854;28;1134;-68
2022/09/08 00:09:25;;;;;;;5.95;2.60;;;;;;;17.47;100.00;100098.97;693929;28;1230;-68
2022/09/08 00:09:45;;;;;;;4.50;2.70;;;;;;;17.47;100.00;100088.38;692695;28;4378;-68
2022/09/08 00:10:06;;;;;;;6.00;3.00;;;;;;;17.48;100.00;100085.69;693470;28;1087;-69
2022/09/08 00:10:28;;;;;;;5.50;2.67;;;;;;;17.49;100.00;100090.03;692402;28;1067;-67
2022/09/08 00:10:53;;;;;;;6.75;2.70;;;;;;;17.47;100.00;100086.63;694394;28;1193;-68
2022/09/08 00:11:18;;;;;;;4.35;2.50;;;;;;;17.42;100.00;100093.00;694623;28;1273;-68
2022/09/08 00:11:40;;;;;;;4.75;2.40;;;;;;;17.36;100.00;100087.06;694713;28;1389;-68
2022/09/08 00:12:02;;;;;;;4.25;2.45;;;;;;;17.36;100.00;100087.06;697063;28;1392;-68
2022/09/08 00:12:24;;;;;;;5.72;2.67;;;;;;;17.36;100.00;100086.19;693953;28;1199;-68
2022/09/08 00:12:47;;;;;;;5.88;2.70;;;;;;;17.38;100.00;100088.78;693054;28;4298;-67
2022/09/08 00:13:07;;;;;;;4.18;2.35;;;;;;;17.35;100.00;100085.34;693173;28;1230;-69
2022/09/08 00:13:30;;;;;;;5.28;2.60;;;;;;;17.38;100.00;100081.72;693203;28;1196;-67
2022/09/08 00:13:51;;;;;;;3.97;2.40;;;;;;;17.36;100.00;100083.56;692913;28;1965;-68
2022/09/08 00:14:12;;;;;;;4.75;2.47;;;;;;;17.34;100.00;100083.63;691715;28;1230;-68
2022/09/08 00:14:32;;;;;;;5.47;2.63;;;;;;;17.38;100.00;100086.13;695605;28;1250;-68
2022/09/08 00:14:55;;;;;;;4.05;2.50;;;;;;;17.38;100.00;100080.84;693903;28;1206;-68
2022/09/08 00:15:16;;;;;;;4.75;2.90;;;;;;;17.34;100.00;100077.50;693370;28;1222;-68
2022/09/08 00:15:37;;;;;;;4.93;2.73;;;;;;;17.33;100.00;100078.41;691217;28;1206;-68
2022/09/08 00:16:02;;;;;;;4.80;2.40;;;;;;;17.34;100.00;100082.78;694602;28;4867;-68
2022/09/08 00:16:23;;;;;;;4.38;2.60;;;;;;;17.31;100.00;100086.41;696410;28;1079;-68
2022/09/08 00:16:43;;;;;;;5.28;2.50;;;;;;;17.32;100.00;100077.56;695967;28;1327;-68
2022/09/08 00:17:03;;;;;;;3.60;2.40;;;;;;;17.32;100.00;100079.31;697158;28;1090;-67
2022/09/08 00:17:24;;;;;;;4.67;2.50;;;;;;;17.30;100.00;100074.13;696048;28;1273;-68
2022/09/08 00:17:45;;;;;;;5.03;2.63;;;;;;;17.30;100.00;100079.41;695928;28;1205;-69
2022/09/08 00:18:06;;;;;;;4.47;2.53;;;;;;;17.33;100.00;100078.41;694071;28;1076;-68
2022/09/08 00:18:28;;;;;;;4.60;2.60;;;;;;;17.35;100.00;100072.16;693310;28;1123;-68
2022/09/08 00:18:52;;;;;;;4.00;2.58;;;;;;;17.32;100.00;100081.97;690002;28;4393;-68
2022/09/08 00:19:12;;;;;;;4.80;2.45;;;;;;;17.32;100.00;100072.28;689330;28;1340;-68
2022/09/08 00:19:33;;;;;;;5.87;2.77;;;;;;;17.27;100.00;100066.31;690730;28;4115;-68
2022/09/08 00:19:53;;;;;;;5.40;2.90;;;;;;;17.26;100.00;100071.66;692058;28;1328;-67
2022/09/08 00:20:14;;;;;;;4.73;2.87;;;;;;;17.25;100.00;100064.66;692589;28;1295;-68
2022/09/08 00:20:34;;;;;;;4.88;2.70;;;;;;;17.24;100.00;100063.81;694812;28;1284;-68
2022/09/08 00:20:54;;;;;;;4.53;2.53;;;;;;;17.23;100.00;100072.66;695823;28;1269;-68
2022/09/08 00:21:15;;;;;;;3.80;2.50;;;;;;;17.22;100.00;100064.81;697687;28;991;-68
2022/09/08 00:21:35;;;;;;;4.47;2.67;;;;;;;17.21;100.00;100063.06;697619;28;1411;-68
2022/09/08 00:21:56;;;;;;;4.50;2.70;;;;;;;17.19;100.00;100065.78;696749;28;4485;-67
2022/09/08 00:22:16;;;;;;;4.20;2.60;;;;;;;17.21;100.00;100063.06;692644;28;1340;-67
2022/09/08 00:22:37;;;;;;;4.55;2.70;;;;;;;17.21;100.00;100063.97;696236;28;1369;-68
2022/09/08 00:22:57;;;;;;;5.27;2.80;;;;;;;17.24;100.00;100065.59;696072;28;1214;-68
2022/09/08 00:23:18;;;;;;;4.22;2.50;;;;;;;17.23;100.00;100064.72;695757;28;1408;-68
2022/09/08 00:23:38;;;;;;;4.23;2.50;;;;;;;17.24;100.00;100060.28;695381;28;1259;-68
2022/09/08 00:23:58;;;;;;;4.67;2.60;;;;;;;17.23;100.00;100059.44;696107;28;1202;-67
2022/09/08 00:24:19;;;;;;;4.30;2.65;;;;;;;17.23;100.00;100061.25;698444;28;1210;-68
2022/09/08 00:24:39;;;;;;;4.20;2.70;;;;;;;17.24;100.00;100062.94;696617;28;4565;-68
2022/09/08 00:25:00;;;;;;;4.63;2.90;;;;;;;17.28;100.00;100062.75;697806;28;1407;-68
2022/09/08 00:25:20;;;;;;;5.33;2.67;;;;;;;17.25;100.00;100060.25;696771;28;1435;-67
2022/09/08 00:25:40;;;;;;;4.80;2.63;;;;;;;17.29;100.00;100064.50;697185;28;1428;-68
2022/09/08 00:26:01;;;;;;;6.15;2.70;;;;;;;17.26;100.00;100059.31;697565;28;983;-68
2022/09/08 00:26:22;;;;;;;4.75;2.60;;;;;;;17.29;100.00;100067.13;694049;28;1550;-68
2022/09/08 00:26:42;;;;;;;4.47;2.70;;;;;;;17.30;100.00;100062.69;694842;28;1135;-68
2022/09/08 00:27:02;;;;;;;3.75;2.47;;;;;;;17.34;100.00;100054.56;694678;28;1178;-68
2022/09/08 00:27:23;;;;;;;4.20;2.40;;;;;;;17.37;100.00;100053.59;694942;28;1403;-68
2022/09/08 00:27:44;;;;;;;4.53;2.50;;;;;;;17.36;100.00;100058.00;697676;28;4342;-68
2022/09/08 00:28:04;;;;;;;5.53;2.70;;;;;;;17.35;100.00;100052.81;694007;28;1068;-68
2022/09/08 00:28:24;;;;;;;5.57;2.60;;;;;;;17.34;100.00;100054.56;696610;28;1095;-68
2022/09/08 00:28:45;;;;;;;4.40;2.70;;;;;;;17.34;100.00;100054.56;697048;28;1167;-68
2022/09/08 00:29:05;;;;;;;4.68;2.72;;;;;;;17.36;100.00;100057.13;694160;28;1273;-68
2022/09/08 00:29:26;;;;;;;5.57;2.77;;;;;;;17.35;100.00;100061.56;692977;28;1128;-68
2022/09/08 00:29:46;;;;;;;5.32;2.65;;;;;;;17.40;100.00;100057.88;694004;28;1192;-69
2022/09/08 00:30:07;;;;;;;5.67;2.50;;;;;;;17.46;100.00;100058.47;693679;28;1206;-68
2022/09/08 00:30:28;;;;;;;5.47;2.50;;;;;;;17.50;100.00;100060.06;693930;28;1282;-68
2022/09/08 00:30:48;;;;;;;4.35;2.45;;;;;;;17.50;100.00;100059.19;693111;28;4422;-68
2022/09/08 00:31:09;;;;;;;4.00;2.50;;;;;;;17.48;100.00;100053.97;696658;28;1134;-68
2022/09/08 00:31:29;;;;;;;4.70;2.55;;;;;;;17.51;100.00;100056.50;696442;28;1242;-69
2022/09/08 00:31:52;;;;;;;5.37;2.60;;;;;;;17.56;100.00;100058.09;697933;28;1261;-69
2022/09/08 00:32:13;;;;;;;4.68;2.60;;;;;;;17.57;100.00;100058.03;695822;28;1418;-67
2022/09/08 00:32:33;;;;;;;4.93;2.78;;;;;;;17.57;100.00;100059.78;696981;28;1026;-68
2022/09/08 00:32:54;;;;;;;4.80;2.60;;;;;;;17.56;100.00;100058.94;696293;28;1343;-68
2022/09/08 00:33:14;;;;;;;4.05;2.47;;;;;;;17.56;100.00;100058.09;696467;28;1699;-68
2022/09/08 00:33:35;;;;;;;4.40;2.50;;;;;;;17.58;100.00;100057.06;696210;28;1918;-67
2022/09/08 00:33:55;;;;;;;4.03;2.75;;;;;;;17.57;100.00;100057.16;696015;28;4316;-68
2022/09/08 00:34:15;;;;;;;4.30;2.63;;;;;;;17.58;100.00;100061.50;692629;28;1356;-68
2022/09/08 00:34:36;;;;;;;4.90;2.60;;;;;;;17.59;100.00;100058.81;690824;28;1148;-68
2022/09/08 00:35:00;;;;;;;5.85;2.72;;;;;;;17.60;100.00;100060.53;691815;28;1163;-68
2022/09/08 00:35:21;;;;;;;5.35;2.90;;;;;;;17.59;100.00;100058.81;693811;28;1523;-68
2022/09/08 00:35:43;;;;;;;6.95;2.90;;;;;;;17.58;100.00;100054.44;694695;28;1227;-69
2022/09/08 00:36:04;;;;;;;4.50;2.83;;;;;;;17.65;100.00;100055.91;695310;28;1122;-68
2022/09/08 00:36:24;;;;;;;5.33;2.97;;;;;;;17.67;100.00;100050.53;697142;28;1152;-68
2022/09/08 00:36:45;;;;;;;5.50;2.80;;;;;;;17.76;100.00;100051.91;695318;28;4305;-67
2022/09/08 00:37:05;;;;;;;5.37;2.57;;;;;;;17.98;100.00;100050.03;695542;28;1115;-68
2022/09/08 00:37:28;;;;;;;6.03;2.75;;;;;;;18.07;100.00;100054.06;695429;28;1309;-68
2022/09/08 00:37:52;;;;;;;5.38;2.75;;;;;;;18.02;100.00;100053.41;695356;28;1227;-68
2022/09/08 00:38:12;;;;;;;4.43;2.60;;;;;;;17.95;100.00;100052.84;694689;28;1221;-68
2022/09/08 00:38:35;;;;;;;4.60;2.53;;;;;;;17.90;100.00;100044.22;697234;28;1325;-68
2022/09/08 00:38:58;;;;;;;4.07;2.60;;;;;;;17.82;100.00;100049.88;696665;28;1217;-68
2022/09/08 00:39:18;;;;;;;4.60;2.50;;;;;;;17.78;100.00;100050.94;696245;28;1365;-68
2022/09/08 00:39:39;;;;;;;5.07;2.70;;;;;;;17.75;100.00;100050.19;694376;28;4304;-68
2022/09/08 00:40:00;;;;;;;4.65;2.67;;;;;;;17.70;100.00;100045.13;692505;28;1251;-68
2022/09/08 00:40:24;;;;;;;4.85;2.60;;;;;;;17.65;100.00;100047.09;694109;28;1461;-68
2022/09/08 00:40:46;;;;;;;3.97;2.72;;;;;;;17.60;100.00;100044.66;693516;28;1286;-68
2022/09/08 00:41:10;;;;;;;4.57;2.75;;;;;;;17.60;100.00;100042.03;694878;28;1270;-68
2022/09/08 00:41:30;;;;;;;4.40;2.50;;;;;;;17.57;100.00;100047.44;695357;28;1280;-67
2022/09/08 00:41:51;;;;;;;5.37;2.70;;;;;;;17.52;100.00;100042.34;697027;28;4942;-68
2022/09/08 00:42:11;;;;;;;4.38;2.55;;;;;;;17.46;100.00;100047.91;697147;28;1255;-68
2022/09/08 00:42:34;;;;;;;4.27;2.53;;;;;;;17.42;100.00;100048.09;696726;28;1110;-67
2022/09/08 00:43:00;;;;;;;3.80;2.60;;;;;;;17.40;100.00;100039.38;695591;28;4934;-67
2022/09/08 00:43:39;;;;;;;5.25;2.80;;;;;;;17.40;100.00;100042.88;697931;28;1428;-67
2022/09/08 00:44:38;;;;;;;5.03;2.70;;;;;;;17.46;100.00;100047.03;698558;28;1444;-67
2022/09/08 00:44:59;;;;;;;4.57;2.70;;;;;;;17.46;100.00;100039.09;696344;28;1316;-67
2022/09/08 00:45:20;;;;;;;5.10;2.90;;;;;;;17.49;100.00;100039.84;696625;28;1236;-68
2022/09/08 00:45:46;;;;;;;5.22;2.70;;;;;;;17.51;100.00;100045.06;697066;28;4493;-67
2022/09/08 00:46:09;;;;;;;5.63;3.10;;;;;;;17.52;100.00;100041.50;695892;28;1149;-67
2022/09/08 00:46:37;;;;;;;4.60;2.90;;;;;;;17.56;100.00;100043.09;697941;28;1157;-67
2022/09/08 00:46:58;;;;;;;4.60;2.70;;;;;;;17.54;100.00;100042.28;696973;28;1125;-67
2022/09/08 00:47:29;;;;;;;4.32;2.53;;;;;;;17.49;100.00;100036.34;697807;28;1216;-68
2022/09/08 00:47:58;;;;;;;4.03;2.70;;;;;;;17.41;100.00;100038.47;697033;28;1102;-68
2022/09/08 00:48:21;;;;;;;5.10;2.80;;;;;;;17.39;100.00;100037.66;697429;28;1416;-68
2022/09/08 00:48:56;;;;;;;5.43;2.72;;;;;;;17.35;100.00;100040.44;697366;28;4416;-68
2022/09/08 00:49:20;;;;;;;4.15;2.53;;;;;;;17.34;100.00;100038.72;696347;28;1249;-68
2022/09/08 00:49:42;;;;;;;4.25;2.70;;;;;;;17.35;100.00;100035.16;698233;28;1457;-67
2022/09/08 00:50:07;;;;;;;6.10;3.08;;;;;;;17.36;100.00;100030.72;696600;28;1146;-68
2022/09/08 00:50:28;;;;;;;6.35;2.90;;;;;;;17.35;100.00;100032.50;696881;28;1064;-67
2022/09/08 00:50:49;;;;;;;5.03;2.75;;;;;;;17.32;100.00;100032.66;695993;28;1129;-68
2022/09/08 00:51:09;;;;;;;5.47;2.80;;;;;;;17.31;100.00;100033.56;692435;28;1320;-67
2022/09/08 00:51:30;;;;;;;4.68;2.63;;;;;;;17.33;100.00;100026.44;693691;28;1255;-67
2022/09/08 00:51:56;;;;;;;4.93;2.90;;;;;;;17.33;100.00;100021.16;695682;28;4418;-67
2022/09/08 00:52:18;;;;;;;5.25;2.85;;;;;;;17.34;100.00;100028.16;695300;28;1281;-68
2022/09/08 00:52:52;;;;;;;5.40;2.80;;;;;;;17.35;100.00;100023.75;693107;28;1441;-67
2022/09/08 00:53:16;;;;;;;4.85;2.80;;;;;;;17.39;100.00;100021.81;695913;28;1311;-68
2022/09/08 00:53:40;;;;;;;5.22;2.80;;;;;;;17.39;100.00;100024.44;697823;28;1906;-67
2022/09/08 00:54:01;;;;;;;5.25;2.80;;;;;;;17.40;100.00;100031.47;696599;28;1542;-68
2022/09/08 00:54:21;;;;;;;5.70;2.90;;;;;;;17.38;100.00;100023.59;696672;28;1451;-67
2022/09/08 00:54:43;;;;;;;4.88;3.00;;;;;;;17.36;100.00;100028.97;695942;28;4333;-67
2022/09/08 00:55:06;;;;;;;4.65;2.80;;;;;;;17.36;100.00;100025.44;697498;28;1125;-68
2022/09/08 00:55:34;;;;;;;4.30;2.53;;;;;;;17.36;100.00;100026.31;697093;28;1121;-67
2022/09/08 00:55:54;;;;;;;4.78;2.70;;;;;;;17.36;100.00;100026.31;697782;28;1210;-67
2022/09/08 00:56:16;;;;;;;4.10;2.60;;;;;;;17.37;100.00;100021.88;696366;28;1213;-67
2022/09/08 00:56:37;;;;;;;4.65;2.83;;;;;;;17.34;100.00;100022.88;696602;28;1335;-68
2022/09/08 00:56:58;;;;;;;5.40;3.03;;;;;;;17.33;100.00;100020.28;696071;28;1161;-68
2022/09/08 00:57:18;;;;;;;4.63;3.00;;;;;;;17.33;100.00;100025.56;695706;28;1320;-68
2022/09/08 00:57:39;;;;;;;5.20;2.90;;;;;;;17.33;100.00;100023.81;696764;28;4486;-67
2022/09/08 00:57:59;;;;;;;5.55;2.80;;;;;;;17.36;100.00;100028.97;696681;28;1376;-67
2022/09/08 00:58:19;;;;;;;4.73;2.80;;;;;;;17.36;100.00;100018.38;696754;28;1138;-67
2022/09/08 00:58:41;;;;;;;4.55;2.78;;;;;;;17.38;100.00;100022.72;697653;28;1460;-67
2022/09/08 00:59:02;;;;;;;5.00;2.90;;;;;;;17.39;100.00;100013.88;696422;28;1102;-67
2022/09/08 00:59:24;;;;;;;5.07;2.60;;;;;;;17.40;100.00;100027.03;696807;28;1222;-67
2022/09/08 00:59:48;;;;;;;4.90;2.83;;;;;;;17.40;100.00;100020.88;697700;28;1234;-71
2022/09/08 01:00:12;;;;;;;4.72;2.80;;;;;;;17.43;100.00;100024.28;696493;28;1090;-68
2022/09/08 01:00:40;;;;;;;4.55;2.80;;;;;;;17.43;100.00;100018.09;696582;28;1292;-68
2022/09/08 01:01:00;;;;;;;4.88;2.78;;;;;;;17.46;100.00;100017.97;697077;28;5051;-67
2022/09/08 01:01:21;;;;;;;5.10;2.67;;;;;;;17.46;100.00;100017.97;696637;28;1389;-68
2022/09/08 01:01:41;;;;;;;4.50;2.83;;;;;;;17.40;100.00;100021.75;697038;28;1362;-68
2022/09/08 01:02:19;;;;;;;4.20;2.60;;;;;;;17.42;100.00;100017.25;697647;28;1213;-67
2022/09/08 01:02:39;;;;;;;4.65;2.60;;;;;;;17.43;100.00;100015.47;690540;28;1406;-67
2022/09/08 01:03:00;;;;;;;4.85;2.70;;;;;;;17.41;100.00;100023.47;690484;28;1578;-68
2022/09/08 01:03:20;;;;;;;5.53;2.73;;;;;;;17.40;100.00;100020.88;692399;28;1468;-68
2022/09/08 01:03:42;;;;;;;5.65;2.80;;;;;;;17.41;100.00;100018.19;692457;28;5386;-68
2022/09/08 01:04:04;;;;;;;5.53;2.92;;;;;;;17.39;100.00;100013.88;693213;28;1199;-67
2022/09/08 01:04:25;;;;;;;4.90;2.90;;;;;;;17.37;100.00;100016.59;692129;28;1299;-67
2022/09/08 01:04:45;;;;;;;5.60;3.00;;;;;;;17.36;100.00;100018.38;696343;28;1206;-67
2022/09/08 01:05:09;;;;;;;5.10;2.90;;;;;;;17.36;100.00;100014.88;697734;28;1141;-68
2022/09/08 01:05:39;;;;;;;4.85;2.90;;;;;;;17.34;100.00;100017.59;696443;28;1382;-68
2022/09/08 01:06:10;;;;;;;4.35;3.00;;;;;;;17.34;100.00;100017.59;696976;28;1416;-68
2022/09/08 01:13:05;;;;;;;4.38;2.90;;;;;;;17.25;100.00;99996.88;691305;28;4724;-67
2022/09/08 01:13:26;;;;;;;4.15;3.10;;;;;;;17.26;100.00;100001.19;694260;28;1485;-69
2022/09/08 01:13:47;;;;;;;4.03;2.97;;;;;;;17.28;100.00;99998.50;696760;28;1965;-68
2022/09/08 01:14:07;;;;;;;4.43;2.70;;;;;;;17.29;100.00;100003.75;697773;28;1280;-68
2022/09/08 01:14:44;;;;;;;6.32;2.72;;;;;;;17.34;100.00;99993.81;696904;28;1221;-67
2022/09/08 01:15:06;;;;;;;4.65;2.70;;;;;;;17.38;100.00;100001.59;693139;28;1402;-68
2022/09/08 01:15:28;;;;;;;5.20;2.70;;;;;;;17.43;100.00;100002.25;692203;28;1583;-69
2022/09/08 01:15:48;;;;;;;4.65;2.83;;;;;;;17.42;100.00;100004.06;692830;28;4518;-69
2022/09/08 01:16:10;;;;;;;5.97;2.80;;;;;;;17.44;100.00;99998.69;692325;28;1467;-68
2022/09/08 01:16:41;;;;;;;5.28;2.72;;;;;;;17.41;100.00;100001.47;689765;28;1342;-68
2022/09/08 01:17:21;;;;;;;6.55;2.80;;;;;;;17.36;100.00;99997.25;693035;28;1070;-68
2022/09/08 01:17:42;;;;;;;4.07;2.80;;;;;;;17.35;100.00;100000.81;693520;28;1075;-68
2022/09/08 01:18:02;;;;;;;4.53;2.75;;;;;;;17.35;100.00;99997.31;694351;28;1330;-68
2022/09/08 01:18:23;;;;;;;4.90;2.60;;;;;;;17.32;100.00;99990.38;694736;28;1181;-68
2022/09/08 01:18:43;;;;;;;5.55;2.70;;;;;;;17.30;100.00;99997.50;695862;28;4319;-68
2022/09/08 01:19:04;;;;;;;6.20;2.70;;;;;;;17.29;100.00;99993.16;697084;28;1260;-68
2022/09/08 01:19:30;;;;;;;5.72;2.88;;;;;;;17.25;100.00;99999.50;697745;28;1217;-68
2022/09/08 01:19:52;;;;;;;4.10;2.70;;;;;;;17.21;100.00;99986.47;697051;28;1157;-68
2022/09/08 01:20:15;;;;;;;4.65;2.80;;;;;;;17.17;100.00;99991.06;695461;28;1149;-68
2022/09/08 01:21:01;;;;;;;4.80;2.70;;;;;;;17.17;100.00;99998.97;696943;28;1339;-68
2022/09/08 01:21:25;;;;;;;5.80;2.47;;;;;;;17.20;100.00;99993.56;698864;28;1804;-68
2022/09/08 01:22:10;;;;;;;6.07;2.83;;;;;;;17.18;100.00;99992.75;698399;28;4306;-68
2022/09/08 01:23:01;;;;;;;4.15;2.80;;;;;;;17.18;100.00;100004.19;695790;28;1229;-68
2022/09/08 01:23:46;;;;;;;5.90;3.20;;;;;;;17.19;100.00;99994.47;696212;28;1017;-68
2022/09/08 01:24:19;;;;;;;5.00;2.95;;;;;;;17.17;100.00;99998.97;696203;28;1157;-68
2022/09/08 01:24:55;;;;;;;5.10;2.70;;;;;;;17.17;100.00;99996.34;697516;28;4275;-68
2022/09/08 01:25:36;;;;;;;4.93;2.60;;;;;;;17.14;100.00;99999.09;694631;28;1644;-69
2022/09/08 01:26:34;;;;;;;4.90;2.92;;;;;;;17.16;100.00;99997.25;696177;28;1057;-68
2022/09/08 01:27:21;;;;;;;5.45;2.70;;;;;;;17.21;100.00;99995.28;698403;28;1260;-66
2022/09/08 01:27:45;;;;;;;4.97;2.85;;;;;;;17.20;100.00;99998.84;697070;28;4956;-68
2022/09/08 01:28:12;;;;;;;5.10;2.80;;;;;;;17.23;100.00;99998.69;696312;28;1173;-69
2022/09/08 01:28:36;;;;;;;4.78;2.85;;;;;;;17.24;100.00;99997.78;696388;28;1277;-68
2022/09/08 01:29:01;;;;;;;5.60;2.95;;;;;;;17.25;100.00;99990.72;695450;28;1526;-68
2022/09/08 01:29:22;;;;;;;4.35;2.88;;;;;;;17.22;100.00;99996.13;692191;28;1099;-68
2022/09/08 01:29:43;;;;;;;3.67;2.70;;;;;;;17.23;100.00;99998.69;692960;28;1211;-68
2022/09/08 01:30:07;;;;;;;3.58;2.75;;;;;;;17.24;100.00;99995.16;693697;28;1282;-68
2022/09/08 01:30:28;;;;;;;5.05;2.80;;;;;;;17.23;100.00;100003.13;690588;28;1242;-68
2022/09/08 01:30:49;;;;;;;4.17;2.67;;;;;;;17.21;100.00;99994.41;689529;28;4311;-68
2022/09/08 01:31:12;;;;;;;5.00;2.80;;;;;;;17.26;100.00;99998.56;691252;28;1133;-68
2022/09/08 01:31:40;;;;;;;4.80;2.83;;;;;;;17.28;100.00;99999.38;694669;28;1234;-68
2022/09/08 01:32:03;;;;;;;5.05;2.70;;;;;;;17.29;100.00;100001.09;695281;28;1119;-68
2022/09/08 01:32:27;;;;;;;5.63;3.10;;;;;;;17.30;100.00;100004.59;692903;28;1091;-68
2022/09/08 01:32:48;;;;;;;4.93;3.03;;;;;;;17.29;100.00;99998.47;694475;28;1365;-68
2022/09/08 01:33:10;;;;;;;5.90;3.08;;;;;;;17.29;100.00;100003.75;693112;28;1679;-72
2022/09/08 01:33:31;;;;;;;5.57;3.10;;;;;;;17.32;100.00;99992.16;694235;28;1175;-68
2022/09/08 01:33:52;;;;;;;5.07;2.97;;;;;;;17.33;100.00;100004.44;695928;28;4510;-68
2022/09/08 01:34:15;;;;;;;4.55;2.92;;;;;;;17.32;100.00;100006.25;693215;28;1284;-68
2022/09/08 01:34:44;;;;;;;5.15;3.10;;;;;;;17.35;100.00;100003.44;694661;28;1528;-68
2022/09/08 01:35:05;;;;;;;5.47;3.00;;;;;;;17.36;100.00;100006.94;695968;28;1269;-68
2022/09/08 01:35:32;;;;;;;4.53;2.80;;;;;;;17.40;100.00;100005.03;696597;28;1039;-68
2022/09/08 01:35:53;;;;;;;6.15;3.10;;;;;;;17.45;100.00;100003.06;696813;28;1300;-68
2022/09/08 01:36:15;;;;;;;5.85;3.10;;;;;;;17.47;100.00;100006.47;696913;28;1463;-68
2022/09/08 01:36:36;;;;;;;4.70;2.80;;;;;;;17.48;100.00;100005.56;696810;28;1158;-68
2022/09/08 01:36:58;;;;;;;5.93;2.93;;;;;;;17.48;100.00;100005.56;697301;28;4244;-68
2022/09/08 01:37:19;;;;;;;5.50;2.95;;;;;;;17.50;100.00;100001.06;698340;28;1162;-69
2022/09/08 01:37:39;;;;;;;5.22;3.00;;;;;;;17.51;100.00;100008.06;696389;28;1095;-68
2022/09/08 01:37:59;;;;;;;6.87;3.10;;;;;;;17.53;100.00;100000.94;698978;28;1213;-68
2022/09/08 01:38:20;;;;;;;5.68;3.00;;;;;;;17.50;100.00;100008.97;698995;28;1138;-68
2022/09/08 01:38:41;;;;;;;4.75;2.88;;;;;;;17.50;100.00;100003.69;697096;28;1468;-68
2022/09/08 01:39:02;;;;;;;5.20;2.80;;;;;;;17.50;100.00;100004.56;695902;28;1110;-68
2022/09/08 01:39:22;;;;;;;4.22;2.72;;;;;;;17.50;100.00;100006.34;696828;28;1120;-68
2022/09/08 01:39:43;;;;;;;4.30;2.60;;;;;;;17.50;100.00;100012.50;698575;28;4368;-68
2022/09/08 01:40:04;;;;;;;4.20;2.90;;;;;;;17.50;100.00;100003.69;699075;28;1177;-68
2022/09/08 01:40:24;;;;;;;4.30;2.83;;;;;;;17.50;100.00;100011.63;699242;28;1102;-69
2022/09/08 01:40:45;;;;;;;4.87;2.90;;;;;;;17.48;100.00;100008.22;698943;28;1201;-72
2022/09/08 01:41:06;;;;;;;5.68;3.10;;;;;;;17.46;100.00;100003.00;695601;28;1147;-68
2022/09/08 01:41:26;;;;;;;5.23;3.03;;;;;;;17.47;100.00;100011.75;692478;28;1207;-68
2022/09/08 01:41:47;;;;;;;4.70;2.83;;;;;;;17.42;100.00;100013.75;692767;28;5013;-68
2022/09/08 01:42:07;;;;;;;5.43;2.90;;;;;;;17.40;100.00;100010.31;689786;28;1754;-67
2022/09/08 01:42:28;;;;;;;4.30;2.67;;;;;;;17.38;100.00;100007.75;688258;28;1084;-69
2022/09/08 01:42:48;;;;;;;6.07;2.90;;;;;;;17.36;100.00;100005.19;687526;28;4354;-68
2022/09/08 01:43:09;;;;;;;5.27;2.97;;;;;;;17.34;100.00;100009.66;691987;28;1163;-68
2022/09/08 01:43:30;;;;;;;4.60;2.90;;;;;;;17.33;100.00;100005.31;693921;28;1273;-68
2022/09/08 01:43:50;;;;;;;4.10;2.70;;;;;;;17.35;100.00;100010.53;694085;28;1388;-68
2022/09/08 01:44:11;;;;;;;6.13;2.80;;;;;;;17.34;100.00;100009.66;696723;28;1399;-68
2022/09/08 01:44:32;;;;;;;6.03;3.00;;;;;;;17.31;100.00;100006.31;693806;28;1234;-68
2022/09/08 01:44:53;;;;;;;5.10;2.70;;;;;;;17.26;100.00;100008.28;687994;28;1215;-68
2022/09/08 01:45:13;;;;;;;5.25;2.90;;;;;;;17.26;100.00;100008.28;689109;28;1449;-68
2022/09/08 01:45:38;;;;;;;4.83;2.90;;;;;;;17.27;100.00;100002.94;687929;28;1282;-69
2022/09/08 01:45:59;;;;;;;4.65;2.60;;;;;;;17.32;100.00;100006.25;687457;28;4768;-68
2022/09/08 01:46:19;;;;;;;5.05;2.88;;;;;;;17.33;100.00;100004.44;689543;28;1634;-68
2022/09/08 01:46:40;;;;;;;4.38;2.75;;;;;;;17.31;100.00;100007.16;691089;28;1134;-68
2022/09/08 01:47:00;;;;;;;4.67;2.80;;;;;;;17.31;100.00;100004.50;694046;28;1088;-68
2022/09/08 01:47:21;;;;;;;4.77;2.70;;;;;;;17.28;100.00;99998.50;690417;28;1285;-68
2022/09/08 01:47:41;;;;;;;5.20;2.80;;;;;;;17.24;100.00;100008.34;691264;28;1060;-69
2022/09/08 01:48:02;;;;;;;5.47;3.13;;;;;;;17.24;100.00;100011.00;691325;28;1137;-68
2022/09/08 01:48:24;;;;;;;5.53;3.00;;;;;;;17.28;100.00;100006.41;694401;28;1179;-68
2022/09/08 01:48:45;;;;;;;5.38;2.70;;;;;;;17.31;100.00;100003.66;690433;28;4422;-68
2022/09/08 01:49:05;;;;;;;6.00;2.78;;;;;;;17.40;100.00;100010.31;693939;28;1293;-69
2022/09/08 01:49:25;;;;;;;7.70;2.90;;;;;;;17.38;100.00;100006.88;694546;28;1267;-68
2022/09/08 01:49:46;;;;;;;5.57;2.78;;;;;;;17.33;100.00;100001.81;694772;28;1210;-68
2022/09/08 01:50:08;;;;;;;4.70;2.90;;;;;;;17.32;100.00;100008.00;694569;28;1295;-68
2022/09/08 01:50:29;;;;;;;5.05;2.80;;;;;;;17.25;100.00;100002.16;695642;28;1019;-68
2022/09/08 01:50:50;;;;;;;5.90;2.90;;;;;;;17.25;100.00;100011.84;700654;28;1125;-68
2022/09/08 01:51:11;;;;;;;5.95;3.00;;;;;;;17.24;100.00;100005.72;700223;28;1277;-68
2022/09/08 01:51:33;;;;;;;4.60;2.63;;;;;;;17.24;100.00;100008.34;697971;28;1157;-68
2022/09/08 01:51:53;;;;;;;5.60;2.60;;;;;;;17.22;100.00;100006.69;696808;28;4293;-68
2022/09/08 01:52:14;;;;;;;5.90;2.77;;;;;;;17.17;100.00;100004.25;693697;28;1095;-68
2022/09/08 01:52:35;;;;;;;4.67;2.80;;;;;;;17.14;100.00;99999.09;693991;28;1364;-68
2022/09/08 01:52:56;;;;;;;4.63;2.90;;;;;;;17.08;100.00;99997.56;693585;28;1008;-67
2022/09/08 01:53:16;;;;;;;6.17;3.13;;;;;;;17.09;100.00;100006.38;692987;28;1306;-68
2022/09/08 01:53:37;;;;;;;5.32;3.10;;;;;;;17.10;100.00;99997.50;694669;28;1596;-68
2022/09/08 01:53:58;;;;;;;4.90;3.10;;;;;;;17.14;100.00;100004.38;697583;28;1125;-68
2022/09/08 01:54:18;;;;;;;5.05;3.00;;;;;;;17.16;100.00;100002.53;696609;28;983;-68
2022/09/08 01:54:39;;;;;;;5.00;2.70;;;;;;;17.16;100.00;100005.19;696723;28;4693;-68